createdAt,value
2022-07-31T00:00:12.872Z,100342.34
2022-07-31T00:02:39.654Z,100333.81
2022-07-31T00:05:06.945Z,100332.31
2022-07-31T00:07:33.761Z,100333.03
2022-07-31T00:10:00.427Z,100337.16
2022-07-31T00:12:27.364Z,100337.56
2022-07-31T00:14:54.058Z,100341.28
2022-07-31T00:17:20.783Z,100337.84
2022-07-31T00:19:47.470Z,100343.59
2022-07-31T00:22:14.123Z,100346.28
2022-07-31T00:24:40.849Z,100342.78
2022-07-31T00:27:07.926Z,100344.84
2022-07-31T00:29:34.572Z,100344.94
2022-07-31T00:32:01.234Z,100343.88
2022-07-31T00:34:28.322Z,100342.78
2022-07-31T00:36:55.218Z,100346.34
2022-07-31T00:39:24.165Z,100337.06
2022-07-31T00:41:51.061Z,100339.69
2022-07-31T00:44:18.446Z,100334.78
2022-07-31T00:46:45.422Z,100343.28
2022-07-31T00:49:12.514Z,100344.94
2022-07-31T00:51:40.503Z,100340.34
2022-07-31T00:54:08.641Z,100342.13
2022-07-31T00:56:35.630Z,100343.00
2022-07-31T00:59:02.935Z,100338.06
2022-07-31T01:01:30.836Z,100343.38
2022-07-31T01:03:57.918Z,100339.75
2022-07-31T01:06:24.708Z,100345.69
2022-07-31T01:08:51.536Z,100347.94
2022-07-31T01:11:36.295Z,100350.97
2022-07-31T01:14:08.993Z,100347.50
2022-07-31T01:16:38.999Z,100352.34
2022-07-31T01:19:42.027Z,100348.53
2022-07-31T01:22:32.977Z,100356.63
2022-07-31T01:25:09.170Z,100358.19
2022-07-31T01:27:53.799Z,100354.81
2022-07-31T01:30:30.468Z,100359.66
2022-07-31T01:33:05.973Z,100357.25
2022-07-31T01:35:39.035Z,100352.28
2022-07-31T01:38:32.392Z,100350.84
2022-07-31T01:41:02.554Z,100354.19
2022-07-31T01:43:33.635Z,100349.19
2022-07-31T01:46:04.386Z,100349.19
2022-07-31T01:48:36.297Z,100349.28
2022-07-31T01:51:05.516Z,100352.91
2022-07-31T01:53:32.808Z,100350.44
2022-07-31T01:56:03.664Z,100349.63
2022-07-31T01:58:38.082Z,100349.44
2022-07-31T02:01:11.257Z,100357.88
2022-07-31T02:03:44.102Z,100350.50
2022-07-31T02:06:16.383Z,100359.72
2022-07-31T02:08:46.327Z,100360.56
2022-07-31T02:11:19.766Z,100360.13
2022-07-31T02:13:48.495Z,100350.31
2022-07-31T02:16:17.344Z,100353.31
2022-07-31T02:18:49.596Z,100348.13
2022-07-31T02:21:25.965Z,100351.72
2022-07-31T02:23:53.769Z,100355.59
2022-07-31T02:26:22.127Z,100356.25
2022-07-31T02:28:52.412Z,100371.72
2022-07-31T02:31:22.991Z,100356.75
2022-07-31T02:33:51.717Z,100360.88
2022-07-31T02:36:21.217Z,100346.78
2022-07-31T02:38:50.314Z,100340.75
2022-07-31T02:41:18.311Z,100344.91
2022-07-31T02:43:46.811Z,100340.81
2022-07-31T02:46:20.141Z,100349.75
2022-07-31T02:48:49.582Z,100349.38
2022-07-31T02:51:18.421Z,100341.53
2022-07-31T02:53:46.538Z,100351.72
2022-07-31T02:56:15.811Z,100340.41
2022-07-31T02:58:42.972Z,100339.75
2022-07-31T03:01:36.168Z,100342.91
2022-07-31T03:04:03.299Z,100336.69
2022-07-31T03:06:30.007Z,100343.47
2022-07-31T03:08:56.914Z,100339.75
2022-07-31T03:11:25.087Z,100349.59
2022-07-31T03:13:53.901Z,100355.44
2022-07-31T03:16:22.421Z,100350.06
2022-07-31T03:18:49.841Z,100344.28
2022-07-31T03:21:19.180Z,100355.06
2022-07-31T03:23:47.415Z,100349.66
2022-07-31T03:26:19.728Z,100343.53
2022-07-31T03:28:46.509Z,100361.06
2022-07-31T03:31:13.241Z,100346.81
2022-07-31T03:33:40.287Z,100346.88
2022-07-31T03:36:09.499Z,100340.63
2022-07-31T03:38:41.679Z,100350.34
2022-07-31T03:41:15.289Z,100351.59
2022-07-31T03:43:48.103Z,100346.22
2022-07-31T03:46:20.625Z,100346.03
2022-07-31T03:48:47.945Z,100347.84
2022-07-31T03:51:15.908Z,100343.47
2022-07-31T03:53:44.001Z,100343.84
2022-07-31T03:56:25.870Z,100343.47
2022-07-31T03:58:53.174Z,100349.25
2022-07-31T04:01:21.977Z,100333.44
2022-07-31T04:03:59.050Z,100334.34
2022-07-31T04:06:35.177Z,100333.31
2022-07-31T04:09:07.904Z,100336.81
2022-07-31T04:11:47.090Z,100341.97
2022-07-31T04:14:13.879Z,100328.03
2022-07-31T04:16:41.009Z,100338.75
2022-07-31T04:19:07.891Z,100342.84
2022-07-31T04:21:34.830Z,100327.22
2022-07-31T04:24:01.650Z,100330.13
2022-07-31T04:27:08.147Z,100323.00
2022-07-31T04:29:41.190Z,100327.81
2022-07-31T04:32:08.049Z,100324.09
2022-07-31T04:34:50.838Z,100332.25
2022-07-31T04:37:17.900Z,100336.25
2022-07-31T04:39:44.684Z,100327.09
2022-07-31T04:42:11.959Z,100333.69
2022-07-31T04:44:39.046Z,100343.38
2022-07-31T04:47:07.082Z,100336.53
2022-07-31T04:49:36.889Z,100336.72
2022-07-31T04:52:05.167Z,100336.72
2022-07-31T04:54:32.548Z,100336.03
2022-07-31T04:56:59.743Z,100338.00
2022-07-31T05:00:00.062Z,100342.47
2022-07-31T05:02:14.229Z,100338.75
2022-07-31T05:04:40.893Z,100331.31
2022-07-31T05:07:07.661Z,100341.72
2022-07-31T05:09:36.453Z,100340.78
2022-07-31T05:12:06.137Z,100350.41
2022-07-31T05:14:33.428Z,100350.41
2022-07-31T05:17:00.174Z,100351.69
2022-07-31T05:19:38.953Z,100359.88
2022-07-31T05:22:34.744Z,100362.63
2022-07-31T05:25:30.815Z,100367.19
2022-07-31T05:27:58.061Z,100370.63
2022-07-31T05:30:30.614Z,100373.59
2022-07-31T05:32:58.673Z,100387.00
2022-07-31T05:35:25.735Z,100377.47
2022-07-31T05:37:52.668Z,100380.16
2022-07-31T05:40:25.755Z,100385.47
2022-07-31T05:43:11.415Z,100392.94
2022-07-31T05:45:56.990Z,100388.31
2022-07-31T05:48:23.864Z,100401.38
2022-07-31T05:50:51.983Z,100381.81
2022-07-31T05:53:20.335Z,100395.06
2022-07-31T05:56:07.525Z,100391.38
2022-07-31T05:58:42.257Z,100389.59
2022-07-31T06:01:15.058Z,100388.84
2022-07-31T06:03:52.081Z,100394.75
2022-07-31T06:06:41.259Z,100386.88
2022-07-31T06:09:08.177Z,100392.84
2022-07-31T06:11:37.616Z,100382.28
2022-07-31T06:14:04.439Z,100393.13
2022-07-31T06:16:50.242Z,100397.47
2022-07-31T06:19:17.557Z,100399.13
2022-07-31T06:21:51.707Z,100396.25
2022-07-31T06:24:21.559Z,100385.41
2022-07-31T06:26:49.249Z,100397.50
2022-07-31T06:29:18.668Z,100389.97
2022-07-31T06:31:52.342Z,100396.94
2022-07-31T06:34:20.059Z,100396.84
2022-07-31T06:36:48.090Z,100398.91
2022-07-31T06:39:17.524Z,100407.72
2022-07-31T06:41:44.441Z,100402.94
2022-07-31T06:44:30.440Z,100401.88
2022-07-31T06:47:14.286Z,100409.66
2022-07-31T06:49:55.865Z,100412.97
2022-07-31T06:52:26.705Z,100410.59
2022-07-31T06:54:54.751Z,100406.53
2022-07-31T06:57:21.863Z,100420.91
2022-07-31T06:59:48.945Z,100410.44
2022-07-31T07:02:16.462Z,100418.44
2022-07-31T07:05:04.646Z,100419.00
2022-07-31T07:07:31.887Z,100417.75
2022-07-31T07:10:00.602Z,100417.13
2022-07-31T07:12:47.455Z,100428.94
2022-07-31T07:15:15.011Z,100417.03
2022-07-31T07:17:42.085Z,100425.47
2022-07-31T07:20:14.856Z,100423.59
2022-07-31T07:22:42.139Z,100415.94
2022-07-31T07:25:12.589Z,100418.34
2022-07-31T07:27:39.563Z,100420.72
2022-07-31T07:30:07.764Z,100421.38
2022-07-31T07:32:34.760Z,100411.84
2022-07-31T07:35:01.709Z,100410.91
2022-07-31T07:37:47.632Z,100404.94
2022-07-31T07:40:16.598Z,100410.44
2022-07-31T07:42:43.431Z,100403.59
2022-07-31T07:45:10.851Z,100411.97
2022-07-31T07:47:54.086Z,100401.84
2022-07-31T07:50:26.768Z,100403.84
2022-07-31T07:53:28.330Z,100401.19
2022-07-31T07:56:13.770Z,100410.88
2022-07-31T07:59:03.389Z,100399.84
2022-07-31T08:01:48.829Z,100394.56
2022-07-31T08:04:20.487Z,100388.50
2022-07-31T08:06:47.420Z,100404.44
2022-07-31T08:09:14.162Z,100393.38
2022-07-31T08:12:00.158Z,100403.25
2022-07-31T08:14:53.882Z,100402.75
2022-07-31T08:17:39.174Z,100411.78
2022-07-31T08:20:07.075Z,100405.69
2022-07-31T08:22:33.772Z,100405.75
2022-07-31T08:25:00.559Z,100400.09
2022-07-31T08:27:39.500Z,100399.59
2022-07-31T08:30:07.665Z,100402.06
2022-07-31T08:32:34.492Z,100412.56
2022-07-31T08:35:20.749Z,100407.47
2022-07-31T08:37:52.338Z,100414.88
2022-07-31T08:40:34.846Z,100416.78
2022-07-31T08:43:31.077Z,100405.81
2022-07-31T08:45:58.688Z,100400.38
2022-07-31T08:48:31.721Z,100388.66
2022-07-31T08:51:01.453Z,100397.16
2022-07-31T08:53:54.518Z,100403.38
2022-07-31T08:56:22.763Z,100400.69
2022-07-31T08:58:49.516Z,100385.75
2022-07-31T09:01:16.478Z,100395.06
2022-07-31T09:03:43.391Z,100388.34
2022-07-31T09:06:13.360Z,100384.41
2022-07-31T09:08:41.553Z,100382.75
2022-07-31T09:11:14.097Z,100375.50
2022-07-31T09:14:01.540Z,100378.56
2022-07-31T09:16:50.748Z,100381.72
2022-07-31T09:19:52.719Z,100385.50
2022-07-31T09:22:24.570Z,100385.91
2022-07-31T09:24:52.767Z,100390.47
2022-07-31T09:27:19.737Z,100385.69
2022-07-31T09:29:49.579Z,100377.09
2022-07-31T09:32:48.793Z,100367.06
2022-07-31T09:35:39.906Z,100370.97
2022-07-31T09:38:09.139Z,100373.69
2022-07-31T09:41:56.438Z,100379.25
2022-07-31T09:44:15.639Z,100374.91
2022-07-31T09:46:45.689Z,100373.94
2022-07-31T09:49:13.469Z,100378.38
2022-07-31T09:51:50.847Z,100370.00
2022-07-31T09:54:21.466Z,100374.22
2022-07-31T09:56:57.792Z,100374.06
2022-07-31T09:59:27.777Z,100370.56
2022-07-31T10:01:55.549Z,100365.00
2022-07-31T10:04:23.664Z,100367.03
2022-07-31T10:06:52.245Z,100353.38
2022-07-31T10:09:21.515Z,100360.66
2022-07-31T10:12:05.660Z,100360.22
2022-07-31T10:14:40.218Z,100344.56
2022-07-31T10:17:10.350Z,100345.75
2022-07-31T10:20:14.339Z,100352.78
2022-07-31T10:23:23.452Z,100353.28
2022-07-31T10:25:59.720Z,100346.84
2022-07-31T10:28:29.857Z,100356.97
2022-07-31T10:30:58.521Z,100353.41
2022-07-31T10:33:43.766Z,100356.59
2022-07-31T10:36:44.011Z,100354.50
2022-07-31T10:39:43.905Z,100354.06
2022-07-31T10:42:51.192Z,100344.31
2022-07-31T10:45:19.355Z,100351.69
2022-07-31T10:48:12.512Z,100352.75
2022-07-31T10:51:15.721Z,100352.91
2022-07-31T10:54:11.503Z,100357.50
2022-07-31T10:56:58.281Z,100342.56
2022-07-31T10:59:44.570Z,100335.00
2022-07-31T11:02:14.299Z,100341.13
2022-07-31T11:04:47.532Z,100345.56
2022-07-31T11:07:15.653Z,100334.03
2022-07-31T11:10:23.820Z,100340.63
2022-07-31T11:13:21.531Z,100323.25
2022-07-31T11:16:09.866Z,100335.06
2022-07-31T11:19:07.072Z,100334.59
2022-07-31T11:21:40.366Z,100323.94
2022-07-31T11:24:18.920Z,100326.16
2022-07-31T11:26:53.198Z,100321.00
2022-07-31T11:30:01.809Z,100316.53
2022-07-31T11:32:24.763Z,100316.28
2022-07-31T11:34:55.168Z,100316.59
2022-07-31T11:37:23.818Z,100309.06
2022-07-31T11:39:52.845Z,100312.09
2022-07-31T11:42:27.490Z,100309.09
2022-07-31T11:45:10.702Z,100303.91
2022-07-31T11:48:11.734Z,100305.03
2022-07-31T11:50:43.569Z,100301.50
2022-07-31T11:53:11.008Z,100308.03
2022-07-31T11:55:51.259Z,100299.88
2022-07-31T11:58:20.786Z,100299.31
2022-07-31T12:00:55.159Z,100300.38
2022-07-31T12:03:29.625Z,100296.84
2022-07-31T12:05:57.018Z,100291.41
2022-07-31T12:08:25.131Z,100287.56
2022-07-31T12:10:56.673Z,100284.28
2022-07-31T12:13:25.597Z,100297.66
2022-07-31T12:15:58.077Z,100291.94
2022-07-31T12:18:28.350Z,100300.41
2022-07-31T12:20:57.129Z,100294.13
2022-07-31T12:23:38.513Z,100290.59
2022-07-31T12:26:10.730Z,100286.78
2022-07-31T12:28:37.614Z,100278.88
2022-07-31T12:31:04.645Z,100278.31
2022-07-31T12:33:42.752Z,100273.94
2022-07-31T12:36:14.291Z,100273.69
2022-07-31T12:38:45.318Z,100280.22
2022-07-31T12:41:15.386Z,100273.94
2022-07-31T12:43:50.970Z,100271.22
2022-07-31T12:46:20.316Z,100275.06
2022-07-31T12:48:47.170Z,100267.94
2022-07-31T12:51:14.100Z,100266.28
2022-07-31T12:53:40.864Z,100270.41
2022-07-31T12:56:12.237Z,100268.22
2022-07-31T12:58:39.141Z,100267.69
2022-07-31T13:01:05.855Z,100261.94
2022-07-31T13:03:45.459Z,100266.28
2022-07-31T13:06:14.093Z,100271.50
2022-07-31T13:08:41.041Z,100257.03
2022-07-31T13:11:07.805Z,100259.47
2022-07-31T13:13:34.655Z,100267.41
2022-07-31T13:16:01.728Z,100251.56
2022-07-31T13:18:30.133Z,100248.31
2022-07-31T13:20:57.070Z,100243.94
2022-07-31T13:23:23.981Z,100253.22
2022-07-31T13:25:50.882Z,100232.75
2022-07-31T13:28:17.710Z,100251.56
2022-07-31T13:30:44.446Z,100244.75
2022-07-31T13:33:11.268Z,100240.94
2022-07-31T13:35:38.095Z,100240.94
2022-07-31T13:38:04.923Z,100230.03
2022-07-31T13:40:50.101Z,100237.13
2022-07-31T13:43:20.121Z,100230.84
2022-07-31T13:45:50.421Z,100236.06
2022-07-31T13:48:17.354Z,100236.06
2022-07-31T13:50:44.241Z,100226.78
2022-07-31T13:53:11.347Z,100234.69
2022-07-31T13:55:38.630Z,100224.59
2022-07-31T13:58:05.495Z,100231.16
2022-07-31T14:00:32.341Z,100232.25
2022-07-31T14:02:59.245Z,100223.81
2022-07-31T14:05:27.729Z,100234.44
2022-07-31T14:07:56.005Z,100238.22
2022-07-31T14:10:23.713Z,100226.78
2022-07-31T14:12:52.641Z,100238.22
2022-07-31T14:15:19.569Z,100222.94
2022-07-31T14:17:46.584Z,100211.78
2022-07-31T14:20:14.234Z,100217.78
2022-07-31T14:22:42.248Z,100224.59
2022-07-31T14:25:09.837Z,100216.69
2022-07-31T14:27:38.650Z,100221.31
2022-07-31T14:30:09.600Z,100223.75
2022-07-31T14:32:36.629Z,100220.47
2022-07-31T14:35:08.012Z,100217.50
2022-07-31T14:37:34.970Z,100213.69
2022-07-31T14:40:01.688Z,100225.97
2022-07-31T14:42:29.724Z,100211.53
2022-07-31T14:44:58.873Z,100207.41
2022-07-31T14:47:26.252Z,100204.94
2022-07-31T14:50:09.377Z,100217.47
2022-07-31T14:52:38.118Z,100215.84
2022-07-31T14:55:05.739Z,100220.75
2022-07-31T14:57:32.581Z,100210.41
2022-07-31T14:59:59.488Z,100212.03
2022-07-31T15:02:26.397Z,100199.50
2022-07-31T15:04:54.226Z,100207.41
2022-07-31T15:07:39.720Z,100208.19
2022-07-31T15:10:09.473Z,100211.50
2022-07-31T15:12:36.292Z,100214.78
2022-07-31T15:15:03.381Z,100216.69
2022-07-31T15:17:30.112Z,100213.16
2022-07-31T15:19:56.860Z,100213.97
2022-07-31T15:22:23.726Z,100207.97
2022-07-31T15:24:51.114Z,100201.97
2022-07-31T15:27:19.052Z,100204.94
2022-07-31T15:30:04.506Z,100203.31
2022-07-31T15:32:33.897Z,100201.69
2022-07-31T15:35:00.676Z,100198.16
2022-07-31T15:37:27.608Z,100194.59
2022-07-31T15:40:03.070Z,100197.88
2022-07-31T15:42:38.240Z,100192.63
2022-07-31T15:45:06.819Z,100181.41
2022-07-31T15:47:33.540Z,100181.34
2022-07-31T15:50:00.676Z,100171.63
2022-07-31T15:52:29.747Z,100177.13
2022-07-31T15:54:58.418Z,100178.25
2022-07-31T15:57:25.417Z,100163.81
2022-07-31T15:59:55.667Z,100166.50
2022-07-31T16:02:23.755Z,100159.97
2022-07-31T16:04:54.888Z,100160.25
2022-07-31T16:08:33.188Z,100160.28
2022-07-31T16:10:17.454Z,100153.19
2022-07-31T16:12:46.320Z,100160.81
2022-07-31T16:15:13.950Z,100164.38
2022-07-31T16:17:41.780Z,100162.16
2022-07-31T16:20:11.898Z,100158.09
2022-07-31T16:22:40.565Z,100166.81
2022-07-31T16:25:09.973Z,100164.63
2022-07-31T16:27:38.217Z,100161.03
2022-07-31T16:30:07.153Z,100164.38
2022-07-31T16:32:33.854Z,100171.19
2022-07-31T16:35:01.665Z,100175.00
2022-07-31T16:37:49.972Z,100177.44
2022-07-31T16:40:28.245Z,100181.53
2022-07-31T16:43:49.404Z,100174.44
2022-07-31T16:45:53.996Z,100177.16
2022-07-31T16:48:20.825Z,100179.38
2022-07-31T16:50:53.620Z,100173.09
2022-07-31T16:54:10.418Z,100173.38
2022-07-31T16:56:11.095Z,100176.63
2022-07-31T16:58:37.823Z,100177.19
2022-07-31T17:01:53.753Z,100175.00
2022-07-31T17:04:00.629Z,100170.13
2022-07-31T17:06:36.773Z,100177.22
2022-07-31T17:09:16.530Z,100176.13
2022-07-31T17:11:51.217Z,100179.38
2022-07-31T17:14:20.464Z,100176.38
2022-07-31T17:16:49.365Z,100183.19
2022-07-31T17:19:41.084Z,100184.56
2022-07-31T17:22:10.996Z,100185.63
2022-07-31T17:24:38.795Z,100187.28
2022-07-31T17:27:07.887Z,100187.28
2022-07-31T17:29:35.205Z,100179.09
2022-07-31T17:32:02.068Z,100191.91
2022-07-31T17:34:28.970Z,100192.94
2022-07-31T17:36:56.331Z,100192.69
2022-07-31T17:39:25.205Z,100198.66
2022-07-31T17:41:55.371Z,100196.22
2022-07-31T17:44:22.141Z,100202.97
2022-07-31T17:46:51.106Z,100202.97
2022-07-31T17:49:19.572Z,100199.72
2022-07-31T17:52:07.717Z,100210.59
2022-07-31T17:54:34.520Z,100205.97
2022-07-31T17:57:01.754Z,100207.84
2022-07-31T17:59:28.914Z,100209.75
2022-07-31T18:02:03.787Z,100215.19
2022-07-31T18:04:33.735Z,100223.59
2022-07-31T18:07:00.836Z,100226.56
2022-07-31T18:09:28.778Z,100227.41
2022-07-31T18:12:12.195Z,100221.69
2022-07-31T18:14:43.528Z,100222.22
2022-07-31T18:17:10.505Z,100230.34
2022-07-31T18:19:40.079Z,100231.69
2022-07-31T18:22:07.645Z,100233.28
2022-07-31T18:24:36.147Z,100233.22
2022-07-31T18:27:02.880Z,100228.28
2022-07-31T18:29:29.536Z,100228.03
2022-07-31T18:31:56.617Z,100230.44
2022-07-31T18:34:23.386Z,100234.50
2022-07-31T18:36:54.586Z,100226.28
2022-07-31T18:39:21.751Z,100236.84
2022-07-31T18:41:49.099Z,100241.13
2022-07-31T18:44:17.684Z,100248.69
2022-07-31T18:46:44.474Z,100254.66
2022-07-31T18:50:58.606Z,100246.47
2022-07-31T18:52:00.113Z,100255.13
2022-07-31T18:54:26.968Z,100260.75
2022-07-31T18:56:53.766Z,100266.50
2022-07-31T18:59:20.677Z,100271.63
2022-07-31T19:01:47.460Z,100264.31
2022-07-31T19:04:14.179Z,100273.00
2022-07-31T19:06:41.018Z,100269.44
2022-07-31T19:09:07.793Z,100279.16
2022-07-31T19:11:34.587Z,100274.22
2022-07-31T19:14:01.280Z,100288.06
2022-07-31T19:16:28.619Z,100287.53
2022-07-31T19:18:56.097Z,100289.97
2022-07-31T19:21:41.649Z,100291.59
2022-07-31T19:24:09.482Z,100284.59
2022-07-31T19:26:36.897Z,100296.78
2022-07-31T19:29:04.673Z,100292.34
2022-07-31T19:31:31.520Z,100294.81
2022-07-31T19:33:58.305Z,100296.47
2022-07-31T19:36:24.992Z,100294.81
2022-07-31T19:38:51.677Z,100291.28
2022-07-31T19:41:18.639Z,100292.34
2022-07-31T19:43:45.296Z,100302.34
2022-07-31T19:46:12.932Z,100301.84
2022-07-31T19:48:45.548Z,100301.81
2022-07-31T19:51:14.847Z,100308.25
2022-07-31T19:53:42.638Z,100298.97
2022-07-31T19:56:11.351Z,100303.16
2022-07-31T19:58:41.653Z,100304.94
2022-07-31T20:01:09.483Z,100308.91
2022-07-31T20:03:36.389Z,100311.69
2022-07-31T20:06:04.680Z,100310.09
2022-07-31T20:08:33.535Z,100306.47
2022-07-31T20:11:03.884Z,100312.53
2022-07-31T20:13:39.274Z,100321.47
2022-07-31T20:16:06.834Z,100321.97
2022-07-31T20:18:33.707Z,100317.59
2022-07-31T20:21:07.450Z,100315.59
2022-07-31T20:23:37.289Z,100321.25
2022-07-31T20:26:06.032Z,100328.19
2022-07-31T20:28:32.778Z,100324.03
2022-07-31T20:30:59.482Z,100329.97
2022-07-31T20:33:26.231Z,100332.59
2022-07-31T20:35:53.361Z,100329.06
2022-07-31T20:38:21.715Z,100332.72
2022-07-31T20:40:53.432Z,100330.47
2022-07-31T20:43:23.754Z,100330.16
2022-07-31T20:45:50.563Z,100324.00
2022-07-31T20:48:22.508Z,100327.00
2022-07-31T20:50:49.313Z,100319.00
2022-07-31T20:53:17.277Z,100334.09
2022-07-31T20:55:49.732Z,100319.06
2022-07-31T20:58:19.003Z,100323.38
2022-07-31T21:00:47.535Z,100324.81
2022-07-31T21:03:15.816Z,100313.00
2022-07-31T21:05:43.012Z,100314.75
2022-07-31T21:08:11.175Z,100320.88
2022-07-31T21:10:37.989Z,100315.63
2022-07-31T21:13:05.193Z,100319.91
2022-07-31T21:15:41.914Z,100314.41
2022-07-31T21:18:21.407Z,100312.53
2022-07-31T21:20:53.463Z,100308.41
2022-07-31T21:23:22.545Z,100316.16
2022-07-31T21:25:50.508Z,100313.81
2022-07-31T21:28:17.501Z,100318.34
2022-07-31T21:30:44.651Z,100315.03
2022-07-31T21:33:11.745Z,100318.00
2022-07-31T21:35:40.067Z,100316.59
2022-07-31T21:38:12.213Z,100313.50
2022-07-31T21:40:40.458Z,100312.59
2022-07-31T21:43:08.527Z,100308.56
2022-07-31T21:45:55.382Z,100310.19
2022-07-31T21:48:25.273Z,100307.22
2022-07-31T21:50:53.690Z,100310.28
2022-07-31T21:53:20.601Z,100319.97
2022-07-31T21:55:47.321Z,100318.78
2022-07-31T21:58:14.343Z,100319.69
2022-07-31T22:00:41.108Z,100320.38
2022-07-31T22:03:07.947Z,100326.72
2022-07-31T22:05:53.313Z,100328.81
2022-07-31T22:08:20.553Z,100332.09
2022-07-31T22:10:50.524Z,100334.94
2022-07-31T22:13:18.633Z,100331.88
2022-07-31T22:15:55.607Z,100337.41
2022-07-31T22:18:29.681Z,100346.22
2022-07-31T22:20:57.582Z,100338.09
2022-07-31T22:23:25.902Z,100342.22
2022-07-31T22:25:53.125Z,100345.38
2022-07-31T22:28:21.593Z,100334.94
2022-07-31T22:30:48.994Z,100342.31
2022-07-31T22:33:16.041Z,100344.00
2022-07-31T22:35:43.782Z,100341.38
2022-07-31T22:38:13.532Z,100344.69
2022-07-31T22:40:40.504Z,100348.31
2022-07-31T22:44:11.626Z,100339.50
2022-07-31T22:46:00.188Z,100339.50
2022-07-31T22:48:28.086Z,100336.94
2022-07-31T22:50:56.200Z,100337.50
2022-07-31T22:53:23.946Z,100335.97
2022-07-31T22:55:55.141Z,100330.78
2022-07-31T22:58:22.382Z,100331.13
2022-07-31T23:00:50.238Z,100332.34
2022-07-31T23:03:17.158Z,100331.97
2022-07-31T23:06:05.310Z,100333.94
2022-07-31T23:08:30.666Z,100324.41
2022-07-31T23:10:57.378Z,100324.41
2022-07-31T23:13:24.121Z,100328.78
2022-07-31T23:15:50.852Z,100322.09
2022-07-31T23:18:17.595Z,100322.69
2022-07-31T23:20:44.402Z,100318.31
2022-07-31T23:23:11.107Z,100317.38
2022-07-31T23:25:37.821Z,100329.59
2022-07-31T23:28:04.628Z,100321.34
2022-07-31T23:30:31.354Z,100330.13
2022-07-31T23:32:58.229Z,100325.19
2022-07-31T23:35:25.245Z,100325.66
2022-07-31T23:37:51.961Z,100321.66
2022-07-31T23:40:18.711Z,100325.78
2022-07-31T23:42:45.438Z,100325.13
2022-07-31T23:45:15.703Z,100328.03
2022-07-31T23:47:45.981Z,100318.28
2022-07-31T23:50:15.177Z,100324.03
2022-07-31T23:52:43.605Z,100322.03
2022-07-31T23:55:10.550Z,100317.97
2022-07-31T23:57:37.906Z,100323.50
